sensor_id;sensor_type;location;lat;lon;timestamp;P1;durP1;ratioP1;P2;durP2;ratioP2
25535;SDS011;13431;51.352;6.412;2022-11-28T00:01:22;8.45;;;6.80;;
25535;SDS011;13431;51.352;6.412;2022-11-28T00:03:52;9.65;;;7.22;;
25535;SDS011;13431;51.352;6.412;2022-11-28T00:06:20;9.15;;;7.35;;
25535;SDS011;13431;51.352;6.412;2022-11-28T00:08:47;9.00;;;7.97;;
25535;SDS011;13431;51.352;6.412;2022-11-28T00:11:15;9.13;;;7.60;;
25535;SDS011;13431;51.352;6.412;2022-11-28T00:13:43;9.75;;;7.25;;
25535;SDS011;13431;51.352;6.412;2022-11-28T00:16:18;7.93;;;7.13;;
25535;SDS011;13431;51.352;6.412;2022-11-28T00:18:48;8.00;;;7.20;;
25535;SDS011;13431;51.352;6.412;2022-11-28T00:21:16;9.15;;;7.60;;
25535;SDS011;13431;51.352;6.412;2022-11-28T00:23:45;8.35;;;7.15;;
25535;SDS011;13431;51.352;6.412;2022-11-28T00:26:22;9.60;;;6.88;;
25535;SDS011;13431;51.352;6.412;2022-11-28T00:28:51;8.32;;;7.20;;
25535;SDS011;13431;51.352;6.412;2022-11-28T00:31:21;7.57;;;6.80;;
25535;SDS011;13431;51.352;6.412;2022-11-28T00:33:50;7.28;;;6.60;;
25535;SDS011;13431;51.352;6.412;2022-11-28T00:36:18;8.35;;;6.85;;
25535;SDS011;13431;51.352;6.412;2022-11-28T00:38:46;7.32;;;6.63;;
25535;SDS011;13431;51.352;6.412;2022-11-28T00:41:16;8.57;;;7.70;;
25535;SDS011;13431;51.352;6.412;2022-11-28T00:43:45;7.60;;;6.90;;
25535;SDS011;13431;51.352;6.412;2022-11-28T00:46:13;11.20;;;7.78;;
25535;SDS011;13431;51.352;6.412;2022-11-28T00:48:42;7.13;;;6.43;;
25535;SDS011;13431;51.352;6.412;2022-11-28T00:51:18;9.50;;;6.30;;
25535;SDS011;13431;51.352;6.412;2022-11-28T00:53:51;8.75;;;6.75;;
25535;SDS011;13431;51.352;6.412;2022-11-28T00:56:21;8.35;;;6.90;;
25535;SDS011;13431;51.352;6.412;2022-11-28T00:58:50;7.60;;;6.90;;
25535;SDS011;13431;51.352;6.412;2022-11-28T01:01:26;10.15;;;6.30;;
25535;SDS011;13431;51.352;6.412;2022-11-28T01:03:56;8.68;;;6.80;;
25535;SDS011;13431;51.352;6.412;2022-11-28T01:06:27;8.43;;;6.60;;
25535;SDS011;13431;51.352;6.412;2022-11-28T01:08:59;8.43;;;6.43;;
25535;SDS011;13431;51.352;6.412;2022-11-28T01:11:29;7.25;;;6.55;;
25535;SDS011;13431;51.352;6.412;2022-11-28T01:13:58;8.55;;;6.88;;
25535;SDS011;13431;51.352;6.412;2022-11-28T01:16:27;7.88;;;6.40;;
25535;SDS011;13431;51.352;6.412;2022-11-28T01:18:55;7.00;;;6.35;;
25535;SDS011;13431;51.352;6.412;2022-11-28T01:21:23;7.57;;;6.82;;
25535;SDS011;13431;51.352;6.412;2022-11-28T01:23:51;7.75;;;7.05;;
25535;SDS011;13431;51.352;6.412;2022-11-28T01:26:20;7.70;;;6.90;;
25535;SDS011;13431;51.352;6.412;2022-11-28T01:28:49;9.65;;;7.90;;
25535;SDS011;13431;51.352;6.412;2022-11-28T01:31:17;9.85;;;7.25;;
25535;SDS011;13431;51.352;6.412;2022-11-28T01:33:47;8.43;;;7.63;;
25535;SDS011;13431;51.352;6.412;2022-11-28T01:36:15;8.05;;;6.82;;
25535;SDS011;13431;51.352;6.412;2022-11-28T01:38:44;7.93;;;6.97;;
25535;SDS011;13431;51.352;6.412;2022-11-28T01:41:12;8.40;;;7.60;;
25535;SDS011;13431;51.352;6.412;2022-11-28T01:43:58;7.95;;;7.32;;
25535;SDS011;13431;51.352;6.412;2022-11-28T01:46:25;8.50;;;7.60;;
25535;SDS011;13431;51.352;6.412;2022-11-28T01:48:54;8.95;;;7.85;;
25535;SDS011;13431;51.352;6.412;2022-11-28T01:51:25;7.50;;;6.80;;
25535;SDS011;13431;51.352;6.412;2022-11-28T01:53:52;8.30;;;7.50;;
25535;SDS011;13431;51.352;6.412;2022-11-28T01:56:26;7.05;;;6.40;;
25535;SDS011;13431;51.352;6.412;2022-11-28T01:59:02;10.52;;;7.45;;
25535;SDS011;13431;51.352;6.412;2022-11-28T02:01:32;8.13;;;7.28;;
25535;SDS011;13431;51.352;6.412;2022-11-28T02:04:00;7.93;;;7.22;;
25535;SDS011;13431;51.352;6.412;2022-11-28T02:06:29;8.45;;;7.20;;
25535;SDS011;13431;51.352;6.412;2022-11-28T02:08:58;8.48;;;7.38;;
25535;SDS011;13431;51.352;6.412;2022-11-28T02:24:00;7.65;;;6.95;;
25535;SDS011;13431;51.352;6.412;2022-11-28T02:26:42;9.23;;;7.20;;
25535;SDS011;13431;51.352;6.412;2022-11-28T02:45:37;9.88;;;7.63;;
25535;SDS011;13431;51.352;6.412;2022-11-28T02:48:30;9.38;;;7.30;;
25535;SDS011;13431;51.352;6.412;2022-11-28T02:51:17;8.85;;;7.95;;
25535;SDS011;13431;51.352;6.412;2022-11-28T02:53:53;8.77;;;7.88;;
25535;SDS011;13431;51.352;6.412;2022-11-28T02:56:23;9.75;;;7.57;;
25535;SDS011;13431;51.352;6.412;2022-11-28T02:58:51;10.27;;;9.07;;
25535;SDS011;13431;51.352;6.412;2022-11-28T03:01:20;8.32;;;7.25;;
25535;SDS011;13431;51.352;6.412;2022-11-28T03:06:50;9.25;;;8.27;;
25535;SDS011;13431;51.352;6.412;2022-11-28T03:09:48;10.32;;;8.15;;
25535;SDS011;13431;51.352;6.412;2022-11-28T03:12:40;10.50;;;8.73;;
25535;SDS011;13431;51.352;6.412;2022-11-28T03:15:31;10.65;;;8.55;;
25535;SDS011;13431;51.352;6.412;2022-11-28T03:18:23;9.50;;;7.72;;
25535;SDS011;13431;51.352;6.412;2022-11-28T03:21:05;11.23;;;7.97;;
25535;SDS011;13431;51.352;6.412;2022-11-28T03:23:42;12.35;;;8.63;;
25535;SDS011;13431;51.352;6.412;2022-11-28T03:26:31;10.05;;;8.25;;
25535;SDS011;13431;51.352;6.412;2022-11-28T03:29:08;9.93;;;8.82;;
25535;SDS011;13431;51.352;6.412;2022-11-28T03:31:48;9.07;;;8.18;;
25535;SDS011;13431;51.352;6.412;2022-11-28T03:34:21;9.73;;;8.73;;
25535;SDS011;13431;51.352;6.412;2022-11-28T03:37:02;12.43;;;9.47;;
25535;SDS011;13431;51.352;6.412;2022-11-28T03:39:34;10.63;;;8.07;;
25535;SDS011;13431;51.352;6.412;2022-11-28T03:42:07;9.82;;;8.63;;
25535;SDS011;13431;51.352;6.412;2022-11-28T03:44:37;10.05;;;9.02;;
25535;SDS011;13431;51.352;6.412;2022-11-28T03:47:11;9.02;;;7.93;;
25535;SDS011;13431;51.352;6.412;2022-11-28T03:49:40;9.40;;;8.48;;
25535;SDS011;13431;51.352;6.412;2022-11-28T03:52:27;9.57;;;8.60;;
25535;SDS011;13431;51.352;6.412;2022-11-28T03:54:58;10.75;;;9.13;;
25535;SDS011;13431;51.352;6.412;2022-11-28T04:00:28;9.95;;;9.00;;
25535;SDS011;13431;51.352;6.412;2022-11-28T04:08:34;10.70;;;9.52;;
25535;SDS011;13431;51.352;6.412;2022-11-28T04:11:14;10.20;;;8.70;;
25535;SDS011;13431;51.352;6.412;2022-11-28T04:13:50;11.93;;;9.07;;
25535;SDS011;13431;51.352;6.412;2022-11-28T04:16:29;12.20;;;9.80;;
25535;SDS011;13431;51.352;6.412;2022-11-28T04:19:03;12.88;;;9.35;;
25535;SDS011;13431;51.352;6.412;2022-11-28T04:22:18;12.32;;;10.50;;
25535;SDS011;13431;51.352;6.412;2022-11-28T04:24:54;11.20;;;9.98;;
25535;SDS011;13431;51.352;6.412;2022-11-28T04:27:34;10.75;;;9.50;;
25535;SDS011;13431;51.352;6.412;2022-11-28T04:30:05;11.13;;;9.95;;
25535;SDS011;13431;51.352;6.412;2022-11-28T04:32:36;11.82;;;10.57;;
25535;SDS011;13431;51.352;6.412;2022-11-28T04:35:08;12.02;;;10.73;;
25535;SDS011;13431;51.352;6.412;2022-11-28T04:37:39;12.50;;;11.20;;
25535;SDS011;13431;51.352;6.412;2022-11-28T04:40:10;11.27;;;10.15;;
25535;SDS011;13431;51.352;6.412;2022-11-28T04:42:39;12.93;;;11.55;;
25535;SDS011;13431;51.352;6.412;2022-11-28T04:45:23;11.98;;;10.80;;
25535;SDS011;13431;51.352;6.412;2022-11-28T04:47:54;12.27;;;11.00;;
25535;SDS011;13431;51.352;6.412;2022-11-28T04:50:22;13.00;;;10.55;;
25535;SDS011;13431;51.352;6.412;2022-11-28T04:55:46;11.90;;;10.50;;
25535;SDS011;13431;51.352;6.412;2022-11-28T04:58:21;11.82;;;10.63;;
25535;SDS011;13431;51.352;6.412;2022-11-28T05:00:55;12.43;;;11.23;;
25535;SDS011;13431;51.352;6.412;2022-11-28T05:03:27;13.45;;;10.80;;
25535;SDS011;13431;51.352;6.412;2022-11-28T05:05:55;12.90;;;10.70;;
25535;SDS011;13431;51.352;6.412;2022-11-28T05:08:23;14.63;;;11.15;;
25535;SDS011;13431;51.352;6.412;2022-11-28T05:10:50;12.82;;;10.90;;
25535;SDS011;13431;51.352;6.412;2022-11-28T05:13:18;11.00;;;9.98;;
25535;SDS011;13431;51.352;6.412;2022-11-28T05:15:45;12.45;;;11.18;;
25535;SDS011;13431;51.352;6.412;2022-11-28T05:18:13;11.68;;;10.48;;
25535;SDS011;13431;51.352;6.412;2022-11-28T05:20:40;11.68;;;10.52;;
25535;SDS011;13431;51.352;6.412;2022-11-28T05:23:09;12.68;;;11.43;;
25535;SDS011;13431;51.352;6.412;2022-11-28T05:25:37;11.38;;;10.18;;
25535;SDS011;13431;51.352;6.412;2022-11-28T05:28:05;12.95;;;10.70;;
25535;SDS011;13431;51.352;6.412;2022-11-28T05:30:34;14.75;;;10.80;;
25535;SDS011;13431;51.352;6.412;2022-11-28T05:33:01;13.57;;;10.77;;
25535;SDS011;13431;51.352;6.412;2022-11-28T05:35:29;14.32;;;11.77;;
25535;SDS011;13431;51.352;6.412;2022-11-28T05:37:56;11.93;;;10.02;;
25535;SDS011;13431;51.352;6.412;2022-11-28T05:40:23;12.48;;;11.18;;
25535;SDS011;13431;51.352;6.412;2022-11-28T05:42:51;12.10;;;10.40;;
25535;SDS011;13431;51.352;6.412;2022-11-28T05:45:18;13.60;;;10.93;;
25535;SDS011;13431;51.352;6.412;2022-11-28T05:47:45;14.60;;;10.95;;
25535;SDS011;13431;51.352;6.412;2022-11-28T05:50:13;12.43;;;10.30;;
25535;SDS011;13431;51.352;6.412;2022-11-28T05:52:40;13.10;;;10.98;;
25535;SDS011;13431;51.352;6.412;2022-11-28T05:55:07;14.50;;;10.85;;
25535;SDS011;13431;51.352;6.412;2022-11-28T05:57:35;11.43;;;10.38;;
25535;SDS011;13431;51.352;6.412;2022-11-28T06:00:03;12.35;;;11.05;;
25535;SDS011;13431;51.352;6.412;2022-11-28T06:02:37;11.68;;;10.52;;
25535;SDS011;13431;51.352;6.412;2022-11-28T06:05:04;13.95;;;11.65;;
25535;SDS011;13431;51.352;6.412;2022-11-28T06:07:52;11.25;;;10.00;;
25535;SDS011;13431;51.352;6.412;2022-11-28T06:10:19;13.15;;;11.27;;
25535;SDS011;13431;51.352;6.412;2022-11-28T06:12:48;11.93;;;10.73;;
25535;SDS011;13431;51.352;6.412;2022-11-28T06:15:15;12.82;;;11.27;;
25535;SDS011;13431;51.352;6.412;2022-11-28T06:17:43;11.63;;;10.45;;
25535;SDS011;13431;51.352;6.412;2022-11-28T06:20:10;11.93;;;10.73;;
25535;SDS011;13431;51.352;6.412;2022-11-28T06:22:37;14.40;;;10.52;;
25535;SDS011;13431;51.352;6.412;2022-11-28T06:25:05;12.32;;;11.00;;
25535;SDS011;13431;51.352;6.412;2022-11-28T06:27:33;13.20;;;10.40;;
25535;SDS011;13431;51.352;6.412;2022-11-28T06:30:01;13.38;;;9.85;;
25535;SDS011;13431;51.352;6.412;2022-11-28T06:32:29;10.93;;;9.93;;
25535;SDS011;13431;51.352;6.412;2022-11-28T06:34:56;13.00;;;9.82;;
25535;SDS011;13431;51.352;6.412;2022-11-28T06:37:23;11.20;;;10.10;;
25535;SDS011;13431;51.352;6.412;2022-11-28T06:39:51;12.60;;;10.88;;
25535;SDS011;13431;51.352;6.412;2022-11-28T06:42:18;11.52;;;10.13;;
25535;SDS011;13431;51.352;6.412;2022-11-28T06:44:45;11.43;;;10.30;;
25535;SDS011;13431;51.352;6.412;2022-11-28T06:47:12;11.98;;;10.77;;
25535;SDS011;13431;51.352;6.412;2022-11-28T06:49:40;11.88;;;10.75;;
25535;SDS011;13431;51.352;6.412;2022-11-28T06:52:08;12.73;;;11.43;;
25535;SDS011;13431;51.352;6.412;2022-11-28T06:54:35;11.75;;;10.55;;
25535;SDS011;13431;51.352;6.412;2022-11-28T06:57:02;10.85;;;9.70;;
25535;SDS011;13431;51.352;6.412;2022-11-28T06:59:29;11.95;;;10.52;;
25535;SDS011;13431;51.352;6.412;2022-11-28T07:01:57;12.45;;;11.15;;
25535;SDS011;13431;51.352;6.412;2022-11-28T07:04:33;11.70;;;10.52;;
25535;SDS011;13431;51.352;6.412;2022-11-28T07:07:01;11.82;;;10.35;;
25535;SDS011;13431;51.352;6.412;2022-11-28T07:09:28;12.20;;;11.00;;
25535;SDS011;13431;51.352;6.412;2022-11-28T07:11:55;11.82;;;10.20;;
25535;SDS011;13431;51.352;6.412;2022-11-28T07:14:23;12.07;;;10.82;;
25535;SDS011;13431;51.352;6.412;2022-11-28T07:16:50;11.77;;;10.57;;
25535;SDS011;13431;51.352;6.412;2022-11-28T07:19:18;13.43;;;11.90;;
25535;SDS011;13431;51.352;6.412;2022-11-28T07:21:49;13.32;;;11.93;;
25535;SDS011;13431;51.352;6.412;2022-11-28T07:24:16;12.50;;;10.60;;
25535;SDS011;13431;51.352;6.412;2022-11-28T07:26:45;13.55;;;11.70;;
25535;SDS011;13431;51.352;6.412;2022-11-28T07:29:13;12.48;;;11.25;;
25535;SDS011;13431;51.352;6.412;2022-11-28T07:31:41;12.45;;;11.15;;
25535;SDS011;13431;51.352;6.412;2022-11-28T07:34:09;11.90;;;10.43;;
25535;SDS011;13431;51.352;6.412;2022-11-28T07:36:37;12.32;;;11.07;;
25535;SDS011;13431;51.352;6.412;2022-11-28T07:39:05;13.25;;;10.82;;
25535;SDS011;13431;51.352;6.412;2022-11-28T07:41:34;12.93;;;10.90;;
25535;SDS011;13431;51.352;6.412;2022-11-28T07:44:02;14.35;;;11.23;;
25535;SDS011;13431;51.352;6.412;2022-11-28T07:46:31;12.73;;;11.43;;
25535;SDS011;13431;51.352;6.412;2022-11-28T07:49:00;14.52;;;10.55;;
25535;SDS011;13431;51.352;6.412;2022-11-28T07:51:30;12.88;;;10.68;;
25535;SDS011;13431;51.352;6.412;2022-11-28T07:53:59;16.30;;;11.98;;
25535;SDS011;13431;51.352;6.412;2022-11-28T07:56:28;14.48;;;11.00;;
25535;SDS011;13431;51.352;6.412;2022-11-28T07:59:17;11.30;;;10.18;;
25535;SDS011;13431;51.352;6.412;2022-11-28T08:01:44;12.38;;;10.52;;
25535;SDS011;13431;51.352;6.412;2022-11-28T08:04:12;12.13;;;10.55;;
25535;SDS011;13431;51.352;6.412;2022-11-28T08:06:40;12.43;;;10.60;;
25535;SDS011;13431;51.352;6.412;2022-11-28T08:09:09;11.48;;;10.32;;
25535;SDS011;13431;51.352;6.412;2022-11-28T08:11:39;12.00;;;10.43;;
25535;SDS011;13431;51.352;6.412;2022-11-28T08:14:07;13.23;;;11.27;;
25535;SDS011;13431;51.352;6.412;2022-11-28T08:16:35;11.57;;;10.00;;
25535;SDS011;13431;51.352;6.412;2022-11-28T08:19:02;11.40;;;10.20;;
25535;SDS011;13431;51.352;6.412;2022-11-28T08:21:31;10.88;;;9.40;;
25535;SDS011;13431;51.352;6.412;2022-11-28T08:24:00;12.15;;;9.88;;
25535;SDS011;13431;51.352;6.412;2022-11-28T08:26:28;11.07;;;9.98;;
25535;SDS011;13431;51.352;6.412;2022-11-28T08:28:57;12.00;;;10.18;;
25535;SDS011;13431;51.352;6.412;2022-11-28T08:31:26;12.02;;;9.90;;
25535;SDS011;13431;51.352;6.412;2022-11-28T08:33:57;10.38;;;9.27;;
25535;SDS011;13431;51.352;6.412;2022-11-28T08:36:25;12.70;;;10.50;;
25535;SDS011;13431;51.352;6.412;2022-11-28T08:38:55;13.30;;;10.13;;
25535;SDS011;13431;51.352;6.412;2022-11-28T08:41:44;10.85;;;9.75;;
25535;SDS011;13431;51.352;6.412;2022-11-28T08:44:12;13.48;;;10.38;;
25535;SDS011;13431;51.352;6.412;2022-11-28T08:46:39;10.77;;;9.68;;
25535;SDS011;13431;51.352;6.412;2022-11-28T08:49:06;12.68;;;10.00;;
25535;SDS011;13431;51.352;6.412;2022-11-28T08:51:34;13.43;;;10.18;;
25535;SDS011;13431;51.352;6.412;2022-11-28T08:54:02;11.65;;;9.90;;
25535;SDS011;13431;51.352;6.412;2022-11-28T08:56:30;13.35;;;10.90;;
25535;SDS011;13431;51.352;6.412;2022-11-28T08:58:57;11.98;;;10.50;;
25535;SDS011;13431;51.352;6.412;2022-11-28T09:01:26;12.15;;;10.85;;
25535;SDS011;13431;51.352;6.412;2022-11-28T09:03:54;11.23;;;10.13;;
25535;SDS011;13431;51.352;6.412;2022-11-28T09:06:22;13.63;;;11.73;;
25535;SDS011;13431;51.352;6.412;2022-11-28T09:08:50;15.32;;;10.50;;
25535;SDS011;13431;51.352;6.412;2022-11-28T09:11:18;11.55;;;10.25;;
25535;SDS011;13431;51.352;6.412;2022-11-28T09:13:47;15.45;;;11.77;;
25535;SDS011;13431;51.352;6.412;2022-11-28T09:16:15;12.73;;;11.43;;
25535;SDS011;13431;51.352;6.412;2022-11-28T09:18:43;15.35;;;11.27;;
25535;SDS011;13431;51.352;6.412;2022-11-28T09:21:12;13.13;;;10.48;;
25535;SDS011;13431;51.352;6.412;2022-11-28T09:23:41;13.82;;;11.10;;
25535;SDS011;13431;51.352;6.412;2022-11-28T09:26:13;12.32;;;10.98;;
25535;SDS011;13431;51.352;6.412;2022-11-28T09:28:43;15.40;;;12.27;;
25535;SDS011;13431;51.352;6.412;2022-11-28T09:31:10;12.27;;;10.88;;
25535;SDS011;13431;51.352;6.412;2022-11-28T09:33:40;15.85;;;11.45;;
25535;SDS011;13431;51.352;6.412;2022-11-28T09:36:12;14.45;;;11.85;;
25535;SDS011;13431;51.352;6.412;2022-11-28T09:38:41;14.35;;;11.80;;
25535;SDS011;13431;51.352;6.412;2022-11-28T09:43:54;13.77;;;11.27;;
25535;SDS011;13431;51.352;6.412;2022-11-28T09:46:30;12.18;;;10.68;;
25535;SDS011;13431;51.352;6.412;2022-11-28T09:49:02;16.00;;;12.23;;
25535;SDS011;13431;51.352;6.412;2022-11-28T09:51:58;12.77;;;11.57;;
25535;SDS011;13431;51.352;6.412;2022-11-28T09:54:43;13.20;;;11.80;;
25535;SDS011;13431;51.352;6.412;2022-11-28T09:59:51;12.07;;;10.87;;
25535;SDS011;13431;51.352;6.412;2022-11-28T10:02:26;11.65;;;10.43;;
25535;SDS011;13431;51.352;6.412;2022-11-28T10:07:53;12.95;;;10.98;;
25535;SDS011;13431;51.352;6.412;2022-11-28T10:13:34;13.63;;;11.52;;
25535;SDS011;13431;51.352;6.412;2022-11-28T10:16:50;12.57;;;11.27;;
25535;SDS011;13431;51.352;6.412;2022-11-28T10:19:14;14.15;;;11.73;;
25535;SDS011;13431;51.352;6.412;2022-11-28T10:22:06;13.25;;;10.57;;
25535;SDS011;13431;51.352;6.412;2022-11-28T10:24:49;12.23;;;11.00;;
25535;SDS011;13431;51.352;6.412;2022-11-28T10:27:23;12.80;;;11.05;;
25535;SDS011;13431;51.352;6.412;2022-11-28T10:29:58;14.50;;;11.25;;
25535;SDS011;13431;51.352;6.412;2022-11-28T10:32:31;13.73;;;10.43;;
25535;SDS011;13431;51.352;6.412;2022-11-28T10:37:54;14.60;;;10.65;;
25535;SDS011;13431;51.352;6.412;2022-11-28T10:46:13;11.55;;;10.32;;
25535;SDS011;13431;51.352;6.412;2022-11-28T10:51:50;11.52;;;10.32;;
25535;SDS011;13431;51.352;6.412;2022-11-28T10:54:50;11.68;;;10.57;;
25535;SDS011;13431;51.352;6.412;2022-11-28T10:57:23;12.30;;;10.88;;
25535;SDS011;13431;51.352;6.412;2022-11-28T11:00:08;12.23;;;11.02;;
25535;SDS011;13431;51.352;6.412;2022-11-28T11:05:45;12.48;;;11.25;;
25535;SDS011;13431;51.352;6.412;2022-11-28T11:10:50;11.95;;;10.75;;
25535;SDS011;13431;51.352;6.412;2022-11-28T11:13:29;10.38;;;9.25;;
25535;SDS011;13431;51.352;6.412;2022-11-28T11:18:29;11.70;;;10.55;;
25535;SDS011;13431;51.352;6.412;2022-11-28T11:23:41;12.05;;;10.85;;
25535;SDS011;13431;51.352;6.412;2022-11-28T11:26:28;12.45;;;11.13;;
25535;SDS011;13431;51.352;6.412;2022-11-28T11:29:00;11.82;;;10.77;;
25535;SDS011;13431;51.352;6.412;2022-11-28T11:31:29;12.68;;;11.32;;
25535;SDS011;13431;51.352;6.412;2022-11-28T11:34:05;12.23;;;10.98;;
25535;SDS011;13431;51.352;6.412;2022-11-28T11:36:40;12.40;;;10.68;;
25535;SDS011;13431;51.352;6.412;2022-11-28T11:41:39;10.80;;;9.80;;
25535;SDS011;13431;51.352;6.412;2022-11-28T11:46:59;11.40;;;10.20;;
25535;SDS011;13431;51.352;6.412;2022-11-28T11:49:38;11.40;;;10.25;;
25535;SDS011;13431;51.352;6.412;2022-11-28T11:54:39;12.65;;;10.93;;
25535;SDS011;13431;51.352;6.412;2022-11-28T11:57:12;11.20;;;10.18;;
25535;SDS011;13431;51.352;6.412;2022-11-28T11:59:59;12.20;;;10.75;;
25535;SDS011;13431;51.352;6.412;2022-11-28T12:02:42;16.35;;;10.43;;
25535;SDS011;13431;51.352;6.412;2022-11-28T12:08:50;11.82;;;10.57;;
25535;SDS011;13431;51.352;6.412;2022-11-28T12:11:23;15.93;;;11.02;;
25535;SDS011;13431;51.352;6.412;2022-11-28T12:13:56;12.43;;;11.27;;
25535;SDS011;13431;51.352;6.412;2022-11-28T12:25:32;11.40;;;10.30;;
25535;SDS011;13431;51.352;6.412;2022-11-28T12:28:09;12.07;;;10.85;;
25535;SDS011;13431;51.352;6.412;2022-11-28T12:30:48;10.77;;;9.75;;
25535;SDS011;13431;51.352;6.412;2022-11-28T12:36:26;13.30;;;9.73;;
25535;SDS011;13431;51.352;6.412;2022-11-28T12:42:07;10.98;;;9.95;;
25535;SDS011;13431;51.352;6.412;2022-11-28T12:44:49;10.93;;;9.82;;
25535;SDS011;13431;51.352;6.412;2022-11-28T13:09:33;9.65;;;8.75;;
25535;SDS011;13431;51.352;6.412;2022-11-28T13:17:32;9.68;;;8.63;;
25535;SDS011;13431;51.352;6.412;2022-11-28T13:28:15;10.52;;;9.60;;
25535;SDS011;13431;51.352;6.412;2022-11-28T13:30:51;11.65;;;10.48;;
25535;SDS011;13431;51.352;6.412;2022-11-28T13:36:21;11.30;;;9.77;;
25535;SDS011;13431;51.352;6.412;2022-11-28T13:42:10;10.52;;;9.52;;
25535;SDS011;13431;51.352;6.412;2022-11-28T13:45:31;10.93;;;9.82;;
25535;SDS011;13431;51.352;6.412;2022-11-28T13:51:20;11.45;;;10.27;;
25535;SDS011;13431;51.352;6.412;2022-11-28T13:56:44;12.63;;;9.95;;
25535;SDS011;13431;51.352;6.412;2022-11-28T13:59:30;12.38;;;11.13;;
25535;SDS011;13431;51.352;6.412;2022-11-28T14:02:00;12.70;;;10.18;;
25535;SDS011;13431;51.352;6.412;2022-11-28T14:04:29;11.95;;;10.60;;
25535;SDS011;13431;51.352;6.412;2022-11-28T14:07:05;12.80;;;11.48;;
25535;SDS011;13431;51.352;6.412;2022-11-28T14:15:02;11.77;;;10.52;;
25535;SDS011;13431;51.352;6.412;2022-11-28T14:17:53;11.68;;;10.48;;
25535;SDS011;13431;51.352;6.412;2022-11-28T14:21:09;11.70;;;10.45;;
25535;SDS011;13431;51.352;6.412;2022-11-28T14:26:22;12.27;;;10.95;;
25535;SDS011;13431;51.352;6.412;2022-11-28T14:28:56;12.07;;;10.88;;
25535;SDS011;13431;51.352;6.412;2022-11-28T14:31:28;11.93;;;9.88;;
25535;SDS011;13431;51.352;6.412;2022-11-28T14:39:46;12.07;;;10.88;;
25535;SDS011;13431;51.352;6.412;2022-11-28T14:45:48;12.27;;;10.88;;
25535;SDS011;13431;51.352;6.412;2022-11-28T14:48:13;14.35;;;11.73;;
25535;SDS011;13431;51.352;6.412;2022-11-28T14:50:44;14.75;;;11.80;;
25535;SDS011;13431;51.352;6.412;2022-11-28T14:56:09;19.67;;;12.60;;
25535;SDS011;13431;51.352;6.412;2022-11-28T14:58:47;16.63;;;12.73;;
25535;SDS011;13431;51.352;6.412;2022-11-28T15:01:23;15.85;;;12.73;;
25535;SDS011;13431;51.352;6.412;2022-11-28T15:04:14;18.05;;;13.75;;
25535;SDS011;13431;51.352;6.412;2022-11-28T15:07:04;15.52;;;11.98;;
25535;SDS011;13431;51.352;6.412;2022-11-28T15:09:47;16.67;;;11.88;;
25535;SDS011;13431;51.352;6.412;2022-11-28T15:12:24;19.43;;;14.23;;
25535;SDS011;13431;51.352;6.412;2022-11-28T15:14:57;16.02;;;14.32;;
25535;SDS011;13431;51.352;6.412;2022-11-28T15:17:31;17.20;;;14.00;;
25535;SDS011;13431;51.352;6.412;2022-11-28T15:20:03;18.08;;;13.30;;
25535;SDS011;13431;51.352;6.412;2022-11-28T15:22:40;19.92;;;13.52;;
25535;SDS011;13431;51.352;6.412;2022-11-28T15:25:22;17.45;;;13.77;;
25535;SDS011;13431;51.352;6.412;2022-11-28T15:28:12;19.35;;;16.42;;
25535;SDS011;13431;51.352;6.412;2022-11-28T15:30:44;22.65;;;17.55;;
25535;SDS011;13431;51.352;6.412;2022-11-28T15:33:13;22.80;;;17.73;;
25535;SDS011;13431;51.352;6.412;2022-11-28T15:38:21;19.80;;;15.55;;
25535;SDS011;13431;51.352;6.412;2022-11-28T15:40:50;15.55;;;13.95;;
25535;SDS011;13431;51.352;6.412;2022-11-28T15:43:18;20.20;;;14.57;;
25535;SDS011;13431;51.352;6.412;2022-11-28T15:45:47;18.50;;;14.57;;
25535;SDS011;13431;51.352;6.412;2022-11-28T15:48:28;26.83;;;23.63;;
25535;SDS011;13431;51.352;6.412;2022-11-28T15:51:06;23.05;;;20.35;;
25535;SDS011;13431;51.352;6.412;2022-11-28T15:53:38;20.58;;;17.17;;
25535;SDS011;13431;51.352;6.412;2022-11-28T15:56:11;22.23;;;15.77;;
25535;SDS011;13431;51.352;6.412;2022-11-28T15:58:41;20.40;;;15.43;;
25535;SDS011;13431;51.352;6.412;2022-11-28T16:06:38;17.13;;;15.23;;
25535;SDS011;13431;51.352;6.412;2022-11-28T16:09:23;19.58;;;15.32;;
25535;SDS011;13431;51.352;6.412;2022-11-28T16:12:01;17.23;;;14.90;;
25535;SDS011;13431;51.352;6.412;2022-11-28T16:14:34;17.70;;;14.98;;
25535;SDS011;13431;51.352;6.412;2022-11-28T16:17:13;17.40;;;15.32;;
25535;SDS011;13431;51.352;6.412;2022-11-28T16:19:44;19.77;;;15.88;;
25535;SDS011;13431;51.352;6.412;2022-11-28T16:22:19;23.30;;;17.85;;
25535;SDS011;13431;51.352;6.412;2022-11-28T16:24:51;21.95;;;17.27;;
25535;SDS011;13431;51.352;6.412;2022-11-28T16:27:33;21.88;;;17.52;;
25535;SDS011;13431;51.352;6.412;2022-11-28T16:33:35;20.98;;;17.27;;
25535;SDS011;13431;51.352;6.412;2022-11-28T16:36:07;19.00;;;16.48;;
25535;SDS011;13431;51.352;6.412;2022-11-28T16:38:44;17.00;;;15.18;;
25535;SDS011;13431;51.352;6.412;2022-11-28T16:41:19;18.08;;;14.45;;
25535;SDS011;13431;51.352;6.412;2022-11-28T16:46:19;16.88;;;14.77;;
25535;SDS011;13431;51.352;6.412;2022-11-28T16:48:55;20.17;;;14.43;;
25535;SDS011;13431;51.352;6.412;2022-11-28T16:53:52;21.95;;;17.27;;
25535;SDS011;13431;51.352;6.412;2022-11-28T16:58:58;17.88;;;14.25;;
25535;SDS011;13431;51.352;6.412;2022-11-28T17:01:40;20.50;;;14.98;;
25535;SDS011;13431;51.352;6.412;2022-11-28T17:04:22;23.80;;;18.88;;
25535;SDS011;13431;51.352;6.412;2022-11-28T17:06:56;18.98;;;15.95;;
25535;SDS011;13431;51.352;6.412;2022-11-28T17:09:30;26.88;;;17.98;;
25535;SDS011;13431;51.352;6.412;2022-11-28T17:12:06;25.90;;;16.05;;
25535;SDS011;13431;51.352;6.412;2022-11-28T17:14:39;23.65;;;17.85;;
25535;SDS011;13431;51.352;6.412;2022-11-28T17:17:13;24.75;;;16.70;;
25535;SDS011;13431;51.352;6.412;2022-11-28T17:19:41;19.90;;;17.80;;
25535;SDS011;13431;51.352;6.412;2022-11-28T17:22:13;16.05;;;14.25;;
25535;SDS011;13431;51.352;6.412;2022-11-28T17:25:06;18.08;;;14.27;;
25535;SDS011;13431;51.352;6.412;2022-11-28T17:27:40;15.90;;;13.70;;
25535;SDS011;13431;51.352;6.412;2022-11-28T17:30:11;17.20;;;14.07;;
25535;SDS011;13431;51.352;6.412;2022-11-28T17:32:40;16.55;;;14.85;;
25535;SDS011;13431;51.352;6.412;2022-11-28T17:35:11;24.83;;;15.88;;
25535;SDS011;13431;51.352;6.412;2022-11-28T17:37:43;17.27;;;13.63;;
25535;SDS011;13431;51.352;6.412;2022-11-28T17:40:11;17.80;;;14.68;;
25535;SDS011;13431;51.352;6.412;2022-11-28T17:42:57;18.23;;;14.27;;
25535;SDS011;13431;51.352;6.412;2022-11-28T17:45:26;18.50;;;14.25;;
25535;SDS011;13431;51.352;6.412;2022-11-28T17:47:56;18.13;;;14.18;;
25535;SDS011;13431;51.352;6.412;2022-11-28T17:50:23;21.67;;;15.07;;
25535;SDS011;13431;51.352;6.412;2022-11-28T17:52:51;19.27;;;16.55;;
25535;SDS011;13431;51.352;6.412;2022-11-28T17:55:18;20.92;;;17.90;;
25535;SDS011;13431;51.352;6.412;2022-11-28T17:57:46;26.92;;;19.65;;
25535;SDS011;13431;51.352;6.412;2022-11-28T18:00:14;21.30;;;17.52;;
25535;SDS011;13431;51.352;6.412;2022-11-28T18:02:43;19.77;;;16.40;;
25535;SDS011;13431;51.352;6.412;2022-11-28T18:05:11;17.95;;;16.05;;
25535;SDS011;13431;51.352;6.412;2022-11-28T18:07:39;23.10;;;17.10;;
25535;SDS011;13431;51.352;6.412;2022-11-28T18:10:09;21.63;;;17.15;;
25535;SDS011;13431;51.352;6.412;2022-11-28T18:12:37;19.52;;;15.82;;